Search for airport 
image banner adimage banner adimage banner ad
image banner ad

Y43 - Anita Muni-Kevin Burke Memorial Field

Located in Anita, United States

ICAO - Y43, IATA -

Data provided by Airmate  

General information

Coordinates: N41°26'24" W94°46'12"
Elevation is 1251 feet MSL.
Magnetic variation is 05° East
View others Airports in Iowa

Operational data

Special qualification required
Current time UTC:
Current local time:
Weather at : KAIO - Atlantic Muni ( 24 km )
METAR: KAIO 151015Z AUTO 35003KT 10SM CLR 13/13 A3011 RMK AO2
View NOTAMs / SUP AIP / TFR affecting this airport [VIEW]
Communications frequencies: [VIEW]

Runways:

RWY identifierQFULength (ft)Width (ft)SurfaceLDA (ft)
0558°282595GRASS
23238°282595GRASS

Airport contact information

Address: Anita United States

Satellite view of Y43